createdAt,value
2017-07-14T00:07:13.000Z,1010.728
2017-07-14T00:17:13.000Z,1010.683
2017-07-14T00:27:13.000Z,1010.521
2017-07-14T00:37:13.000Z,1010.41
2017-07-14T00:47:13.000Z,1010.373
2017-07-14T00:57:13.000Z,1010.321
2017-07-14T01:07:13.000Z,1010.201
2017-07-14T01:17:13.000Z,1010.04
2017-07-14T01:27:13.000Z,1010.019
2017-07-14T01:37:13.000Z,1009.92
2017-07-14T01:47:13.000Z,1009.855
2017-07-14T01:57:13.000Z,1009.712
2017-07-14T02:07:13.000Z,1009.724
2017-07-14T02:17:13.000Z,1009.691
2017-07-14T02:27:14.000Z,1009.603
2017-07-14T02:37:14.000Z,1009.511
2017-07-14T02:47:14.000Z,1009.475
2017-07-14T02:57:14.000Z,1009.446
2017-07-14T03:07:14.000Z,1009.333
2017-07-14T03:17:14.000Z,1009.305
2017-07-14T03:27:14.000Z,1009.307
2017-07-14T03:37:14.000Z,1009.315
2017-07-14T03:47:14.000Z,1009.333
2017-07-14T03:57:14.000Z,1009.365
2017-07-14T04:07:14.000Z,1009.342
2017-07-14T04:17:14.000Z,1009.319
2017-07-14T04:27:14.000Z,1009.279
2017-07-14T04:37:14.000Z,1009.229
2017-07-14T04:47:14.000Z,1009.246
2017-07-14T05:07:14.000Z,1009.111
2017-07-14T05:17:14.000Z,1009.087
2017-07-14T05:27:14.000Z,1009.091
2017-07-14T05:37:14.000Z,1009.01
2017-07-14T05:47:14.000Z,1008.886
2017-07-14T05:57:14.000Z,1008.863
2017-07-14T06:07:14.000Z,1008.837
2017-07-14T06:17:14.000Z,1008.816
2017-07-14T06:27:14.000Z,1008.766
2017-07-14T06:37:14.000Z,1008.717
2017-07-14T06:47:14.000Z,1008.644
2017-07-14T06:57:14.000Z,1008.598
2017-07-14T07:07:14.000Z,1008.62
2017-07-14T07:17:14.000Z,1008.618
2017-07-14T07:27:14.000Z,1008.629
2017-07-14T07:37:14.000Z,1008.642
2017-07-14T07:47:14.000Z,1008.658
2017-07-14T07:57:14.000Z,1008.686
2017-07-14T08:07:14.000Z,1008.666
2017-07-14T08:17:14.000Z,1008.647
2017-07-14T08:27:14.000Z,1008.536
2017-07-14T08:37:14.000Z,1008.465
2017-07-14T08:47:14.000Z,1008.419
2017-07-14T08:57:14.000Z,1008.375
2017-07-14T09:07:14.000Z,1008.311
2017-07-14T09:17:14.000Z,1008.371
2017-07-14T09:27:14.000Z,1008.288
2017-07-14T09:37:14.000Z,1008.275
2017-07-14T09:47:14.000Z,1008.23
2017-07-14T09:57:14.000Z,1008.239
2017-07-14T10:07:14.000Z,1008.238
2017-07-14T10:17:14.000Z,1008.156
2017-07-14T10:27:14.000Z,1008.106
2017-07-14T10:37:14.000Z,1008.082
2017-07-14T10:47:15.000Z,1008.159
2017-07-14T10:57:15.000Z,1008.094
2017-07-14T11:07:15.000Z,1008.12
2017-07-14T11:17:15.000Z,1008.06
2017-07-14T11:27:15.000Z,1008.085
2017-07-14T11:37:15.000Z,1008.165
2017-07-14T11:47:15.000Z,1008.085
2017-07-14T11:57:15.000Z,1008.073
2017-07-14T12:07:15.000Z,1008.066
2017-07-14T12:17:15.000Z,1008.078
2017-07-14T12:27:15.000Z,1008.065
2017-07-14T12:37:15.000Z,1008.156
2017-07-14T12:47:15.000Z,1008.051
2017-07-14T12:57:15.000Z,1007.989
2017-07-14T13:07:15.000Z,1007.983
2017-07-14T13:17:19.000Z,1007.863
2017-07-14T13:37:15.000Z,1007.874
2017-07-14T13:47:15.000Z,1007.815
2017-07-14T13:57:15.000Z,1007.926
2017-07-14T14:07:15.000Z,1008.084
2017-07-14T14:17:15.000Z,1008.094
2017-07-14T14:27:15.000Z,1008.173
2017-07-14T14:37:15.000Z,1008.223
2017-07-14T14:47:15.000Z,1008.293
2017-07-14T14:57:15.000Z,1008.166
2017-07-14T15:07:15.000Z,1008.253
2017-07-14T15:17:15.000Z,1008.297
2017-07-14T15:37:15.000Z,1008.152
2017-07-14T15:47:15.000Z,1008.306
2017-07-14T15:57:15.000Z,1008.296
2017-07-14T16:07:18.000Z,1008.28
2017-07-14T16:17:15.000Z,1008.181
2017-07-14T16:27:15.000Z,1008.223
2017-07-14T16:37:15.000Z,1008.256
2017-07-14T16:47:15.000Z,1008.195
2017-07-14T16:57:15.000Z,1008.29
2017-07-14T17:07:15.000Z,1008.25
2017-07-14T17:17:15.000Z,1008.231
2017-07-14T17:27:15.000Z,1008.384
2017-07-14T17:37:15.000Z,1008.398
2017-07-14T17:47:19.000Z,1008.555
2017-07-14T17:57:15.000Z,1008.608
2017-07-14T18:07:15.000Z,1008.732
2017-07-14T18:17:15.000Z,1008.852
2017-07-14T18:27:15.000Z,1008.937
2017-07-14T18:37:15.000Z,1008.99
2017-07-14T18:47:16.000Z,1009.071
2017-07-14T19:07:17.000Z,1009.179
2017-07-14T19:17:16.000Z,1009.255
2017-07-14T19:27:16.000Z,1009.304
2017-07-14T19:37:16.000Z,1009.404
2017-07-14T19:47:16.000Z,1009.485
2017-07-14T19:57:16.000Z,1009.588
2017-07-14T20:07:16.000Z,1009.672
2017-07-14T20:17:16.000Z,1009.872
2017-07-14T20:27:16.000Z,1010.017
2017-07-14T20:37:16.000Z,1010.22
2017-07-14T20:47:16.000Z,1010.287
2017-07-14T20:57:16.000Z,1010.357
2017-07-14T21:07:16.000Z,1010.349
2017-07-14T21:27:20.000Z,1010.509
2017-07-14T21:37:16.000Z,1010.542
2017-07-14T21:57:16.000Z,1010.661
2017-07-14T22:07:16.000Z,1010.651
2017-07-14T22:17:17.000Z,1010.7
2017-07-14T22:27:16.000Z,1010.783
2017-07-14T22:37:16.000Z,1010.794
2017-07-14T22:47:16.000Z,1010.83
2017-07-14T22:57:16.000Z,1010.853
2017-07-14T23:07:16.000Z,1010.793
2017-07-14T23:17:16.000Z,1010.86
2017-07-14T23:27:16.000Z,1010.858
2017-07-14T23:37:16.000Z,1010.83
2017-07-14T23:47:16.000Z,1010.988
2017-07-14T23:57:16.000Z,1010.992
